sensor_id;sensor_type;location;lat;lon;timestamp;temperature;humidity
12682;DHT22;6405;59.208;18.216;2022-12-18T00:03:47;-2.30;99.90
12682;DHT22;6405;59.208;18.216;2022-12-18T00:06:16;-2.30;99.90
12682;DHT22;6405;59.208;18.216;2022-12-18T00:08:43;-2.30;99.90
12682;DHT22;6405;59.208;18.216;2022-12-18T00:11:17;-2.30;99.90
12682;DHT22;6405;59.208;18.216;2022-12-18T00:13:45;-2.20;99.90
12682;DHT22;6405;59.208;18.216;2022-12-18T00:16:15;-2.20;99.90
12682;DHT22;6405;59.208;18.216;2022-12-18T00:18:43;-2.20;99.90
12682;DHT22;6405;59.208;18.216;2022-12-18T00:21:12;-2.20;99.90
12682;DHT22;6405;59.208;18.216;2022-12-18T00:23:40;-2.20;99.90
12682;DHT22;6405;59.208;18.216;2022-12-18T00:26:12;-2.20;99.90
12682;DHT22;6405;59.208;18.216;2022-12-18T00:28:39;-2.20;99.90
12682;DHT22;6405;59.208;18.216;2022-12-18T00:31:08;-2.10;99.90
12682;DHT22;6405;59.208;18.216;2022-12-18T00:33:38;-2.10;99.90
12682;DHT22;6405;59.208;18.216;2022-12-18T00:36:09;-2.10;99.90
12682;DHT22;6405;59.208;18.216;2022-12-18T00:38:36;-2.10;99.90
12682;DHT22;6405;59.208;18.216;2022-12-18T00:41:03;-2.10;99.90
12682;DHT22;6405;59.208;18.216;2022-12-18T00:43:30;-2.10;99.90
12682;DHT22;6405;59.208;18.216;2022-12-18T00:45:56;-2.10;99.90
12682;DHT22;6405;59.208;18.216;2022-12-18T00:48:22;-2.00;99.90
12682;DHT22;6405;59.208;18.216;2022-12-18T00:50:51;-2.00;99.90
12682;DHT22;6405;59.208;18.216;2022-12-18T00:53:18;-2.00;99.90
12682;DHT22;6405;59.208;18.216;2022-12-18T00:55:45;-2.00;99.90
12682;DHT22;6405;59.208;18.216;2022-12-18T00:58:15;-2.00;99.90
12682;DHT22;6405;59.208;18.216;2022-12-18T01:00:42;-2.00;99.90
12682;DHT22;6405;59.208;18.216;2022-12-18T01:03:13;-2.00;99.90
12682;DHT22;6405;59.208;18.216;2022-12-18T01:05:41;-2.00;99.90
12682;DHT22;6405;59.208;18.216;2022-12-18T01:08:07;-2.00;99.90
12682;DHT22;6405;59.208;18.216;2022-12-18T01:10:35;-2.00;99.90
12682;DHT22;6405;59.208;18.216;2022-12-18T01:13:02;-2.00;99.90
12682;DHT22;6405;59.208;18.216;2022-12-18T01:15:29;-2.00;99.90
12682;DHT22;6405;59.208;18.216;2022-12-18T01:17:55;-2.00;99.90
12682;DHT22;6405;59.208;18.216;2022-12-18T01:20:22;-1.90;99.90
12682;DHT22;6405;59.208;18.216;2022-12-18T01:22:50;-2.00;99.90
12682;DHT22;6405;59.208;18.216;2022-12-18T01:25:17;-1.90;99.90
12682;DHT22;6405;59.208;18.216;2022-12-18T01:27:44;-2.00;99.90
12682;DHT22;6405;59.208;18.216;2022-12-18T01:30:11;-1.90;99.90
12682;DHT22;6405;59.208;18.216;2022-12-18T01:32:38;-1.90;99.90
12682;DHT22;6405;59.208;18.216;2022-12-18T01:35:06;-1.90;99.90
12682;DHT22;6405;59.208;18.216;2022-12-18T01:37:33;-1.90;99.90
12682;DHT22;6405;59.208;18.216;2022-12-18T01:40:00;-1.90;99.90
12682;DHT22;6405;59.208;18.216;2022-12-18T01:42:25;-1.90;99.90
12682;DHT22;6405;59.208;18.216;2022-12-18T01:45:04;-1.90;99.90
12682;DHT22;6405;59.208;18.216;2022-12-18T01:47:41;-1.90;99.90
12682;DHT22;6405;59.208;18.216;2022-12-18T01:50:30;-1.90;99.90
12682;DHT22;6405;59.208;18.216;2022-12-18T01:52:57;-1.90;99.90
12682;DHT22;6405;59.208;18.216;2022-12-18T01:55:28;-1.90;99.90
12682;DHT22;6405;59.208;18.216;2022-12-18T01:57:59;-1.90;99.90
12682;DHT22;6405;59.208;18.216;2022-12-18T02:00:27;-1.80;99.90
12682;DHT22;6405;59.208;18.216;2022-12-18T02:02:55;-1.80;99.90
12682;DHT22;6405;59.208;18.216;2022-12-18T02:05:44;-1.80;99.90
12682;DHT22;6405;59.208;18.216;2022-12-18T02:17:21;-1.80;99.90
12682;DHT22;6405;59.208;18.216;2022-12-18T02:19:58;-1.80;99.90
12682;DHT22;6405;59.208;18.216;2022-12-18T02:23:09;-1.80;99.90
12682;DHT22;6405;59.208;18.216;2022-12-18T02:28:33;-1.80;99.90
12682;DHT22;6405;59.208;18.216;2022-12-18T02:31:02;-1.80;99.90
12682;DHT22;6405;59.208;18.216;2022-12-18T02:33:31;-1.80;99.90
12682;DHT22;6405;59.208;18.216;2022-12-18T02:36:00;-1.80;99.90
12682;DHT22;6405;59.208;18.216;2022-12-18T02:38:29;-1.80;99.90
12682;DHT22;6405;59.208;18.216;2022-12-18T02:40:57;-1.80;99.90
12682;DHT22;6405;59.208;18.216;2022-12-18T02:43:24;-1.80;99.90
12682;DHT22;6405;59.208;18.216;2022-12-18T02:45:56;-1.80;99.90
12682;DHT22;6405;59.208;18.216;2022-12-18T02:48:29;-1.80;99.90
12682;DHT22;6405;59.208;18.216;2022-12-18T02:53:43;-1.80;99.90
12682;DHT22;6405;59.208;18.216;2022-12-18T02:56:13;-1.80;99.90
12682;DHT22;6405;59.208;18.216;2022-12-18T03:04:08;-1.80;99.90
12682;DHT22;6405;59.208;18.216;2022-12-18T03:06:40;-1.80;99.90
12682;DHT22;6405;59.208;18.216;2022-12-18T03:09:21;-1.80;99.90
12682;DHT22;6405;59.208;18.216;2022-12-18T03:11:56;-1.80;99.90
12682;DHT22;6405;59.208;18.216;2022-12-18T03:14:45;-1.80;99.90
12682;DHT22;6405;59.208;18.216;2022-12-18T03:17:17;-1.80;99.90
12682;DHT22;6405;59.208;18.216;2022-12-18T03:19:46;-1.80;99.90
12682;DHT22;6405;59.208;18.216;2022-12-18T03:22:16;-1.80;99.90
12682;DHT22;6405;59.208;18.216;2022-12-18T03:24:45;-1.80;99.90
12682;DHT22;6405;59.208;18.216;2022-12-18T03:27:15;-1.80;99.90
12682;DHT22;6405;59.208;18.216;2022-12-18T03:30:03;-1.80;99.90
12682;DHT22;6405;59.208;18.216;2022-12-18T03:32:49;-1.80;99.90
12682;DHT22;6405;59.208;18.216;2022-12-18T03:35:23;-1.80;99.90
12682;DHT22;6405;59.208;18.216;2022-12-18T03:37:51;-1.80;99.90
12682;DHT22;6405;59.208;18.216;2022-12-18T03:40:20;-1.80;99.90
12682;DHT22;6405;59.208;18.216;2022-12-18T03:42:51;-1.80;99.90
12682;DHT22;6405;59.208;18.216;2022-12-18T03:50:50;-1.80;99.90
12682;DHT22;6405;59.208;18.216;2022-12-18T03:53:31;-1.80;99.90
12682;DHT22;6405;59.208;18.216;2022-12-18T03:56:00;-1.80;99.90
12682;DHT22;6405;59.208;18.216;2022-12-18T03:58:27;-1.80;99.90
12682;DHT22;6405;59.208;18.216;2022-12-18T04:00:58;-1.80;99.90
12682;DHT22;6405;59.208;18.216;2022-12-18T04:03:31;-1.90;99.90
12682;DHT22;6405;59.208;18.216;2022-12-18T04:05:59;-1.80;99.90
12682;DHT22;6405;59.208;18.216;2022-12-18T04:08:27;-1.90;99.90
12682;DHT22;6405;59.208;18.216;2022-12-18T04:10:55;-1.80;99.90
12682;DHT22;6405;59.208;18.216;2022-12-18T04:13:31;-1.80;99.90
12682;DHT22;6405;59.208;18.216;2022-12-18T04:15:58;-1.90;99.90
12682;DHT22;6405;59.208;18.216;2022-12-18T04:18:26;-1.80;99.90
12682;DHT22;6405;59.208;18.216;2022-12-18T04:20:53;-1.80;99.90
12682;DHT22;6405;59.208;18.216;2022-12-18T04:23:20;-1.90;99.90
12682;DHT22;6405;59.208;18.216;2022-12-18T04:25:47;-1.90;99.90
12682;DHT22;6405;59.208;18.216;2022-12-18T04:28:14;-1.90;99.90
12682;DHT22;6405;59.208;18.216;2022-12-18T04:30:40;-1.80;99.90
12682;DHT22;6405;59.208;18.216;2022-12-18T04:33:10;-1.90;99.90
12682;DHT22;6405;59.208;18.216;2022-12-18T04:35:42;-1.80;99.90
12682;DHT22;6405;59.208;18.216;2022-12-18T04:38:10;-1.90;99.90
12682;DHT22;6405;59.208;18.216;2022-12-18T04:40:38;-1.90;99.90
12682;DHT22;6405;59.208;18.216;2022-12-18T04:43:04;-1.90;99.90
12682;DHT22;6405;59.208;18.216;2022-12-18T04:45:32;-1.90;99.90
12682;DHT22;6405;59.208;18.216;2022-12-18T04:48:00;-1.90;99.90
12682;DHT22;6405;59.208;18.216;2022-12-18T04:50:27;-1.90;99.90
12682;DHT22;6405;59.208;18.216;2022-12-18T04:52:57;-1.80;99.90
12682;DHT22;6405;59.208;18.216;2022-12-18T04:55:26;-1.80;99.90
12682;DHT22;6405;59.208;18.216;2022-12-18T04:57:53;-1.80;99.90
12682;DHT22;6405;59.208;18.216;2022-12-18T05:00:20;-1.80;99.90
12682;DHT22;6405;59.208;18.216;2022-12-18T05:02:46;-1.80;99.90
12682;DHT22;6405;59.208;18.216;2022-12-18T05:05:15;-1.80;99.90
12682;DHT22;6405;59.208;18.216;2022-12-18T05:07:41;-1.80;99.90
12682;DHT22;6405;59.208;18.216;2022-12-18T05:10:07;-1.80;99.90
12682;DHT22;6405;59.208;18.216;2022-12-18T05:12:34;-1.80;99.90
12682;DHT22;6405;59.208;18.216;2022-12-18T05:15:22;-1.80;99.90
12682;DHT22;6405;59.208;18.216;2022-12-18T05:17:50;-1.80;99.90
12682;DHT22;6405;59.208;18.216;2022-12-18T05:20:18;-1.80;99.90
12682;DHT22;6405;59.208;18.216;2022-12-18T05:22:45;-1.80;99.90
12682;DHT22;6405;59.208;18.216;2022-12-18T05:25:11;-1.80;99.90
12682;DHT22;6405;59.208;18.216;2022-12-18T05:27:40;-1.80;99.90
12682;DHT22;6405;59.208;18.216;2022-12-18T05:30:06;-1.80;99.90
12682;DHT22;6405;59.208;18.216;2022-12-18T05:32:33;-1.80;99.90
12682;DHT22;6405;59.208;18.216;2022-12-18T05:34:59;-1.80;99.90
12682;DHT22;6405;59.208;18.216;2022-12-18T05:37:28;-1.90;99.90
12682;DHT22;6405;59.208;18.216;2022-12-18T05:39:56;-1.90;99.90
12682;DHT22;6405;59.208;18.216;2022-12-18T05:42:23;-1.90;99.90
12682;DHT22;6405;59.208;18.216;2022-12-18T05:44:50;-1.90;99.90
12682;DHT22;6405;59.208;18.216;2022-12-18T05:47:18;-2.00;99.90
12682;DHT22;6405;59.208;18.216;2022-12-18T05:49:45;-2.00;99.90
12682;DHT22;6405;59.208;18.216;2022-12-18T05:52:12;-2.00;99.90
12682;DHT22;6405;59.208;18.216;2022-12-18T05:54:38;-2.00;99.90
12682;DHT22;6405;59.208;18.216;2022-12-18T05:57:05;-2.00;99.90
12682;DHT22;6405;59.208;18.216;2022-12-18T05:59:32;-2.00;99.90
12682;DHT22;6405;59.208;18.216;2022-12-18T06:01:59;-2.00;99.90
12682;DHT22;6405;59.208;18.216;2022-12-18T06:04:27;-1.90;99.90
12682;DHT22;6405;59.208;18.216;2022-12-18T06:06:55;-1.90;99.90
12682;DHT22;6405;59.208;18.216;2022-12-18T06:09:21;-1.90;99.90
12682;DHT22;6405;59.208;18.216;2022-12-18T06:11:48;-1.90;99.90
12682;DHT22;6405;59.208;18.216;2022-12-18T06:14:15;-1.90;99.90
12682;DHT22;6405;59.208;18.216;2022-12-18T06:16:43;-1.80;99.90
12682;DHT22;6405;59.208;18.216;2022-12-18T06:19:15;-1.90;99.90
12682;DHT22;6405;59.208;18.216;2022-12-18T06:21:42;-1.90;99.90
12682;DHT22;6405;59.208;18.216;2022-12-18T06:24:10;-1.90;99.90
12682;DHT22;6405;59.208;18.216;2022-12-18T06:26:38;-1.90;99.90
12682;DHT22;6405;59.208;18.216;2022-12-18T06:29:06;-1.90;99.90
12682;DHT22;6405;59.208;18.216;2022-12-18T06:31:33;-1.80;99.90
12682;DHT22;6405;59.208;18.216;2022-12-18T06:34:03;-1.80;99.90
12682;DHT22;6405;59.208;18.216;2022-12-18T06:36:29;-1.80;99.90
12682;DHT22;6405;59.208;18.216;2022-12-18T06:38:58;-1.80;99.90
12682;DHT22;6405;59.208;18.216;2022-12-18T06:41:27;-1.80;99.90
12682;DHT22;6405;59.208;18.216;2022-12-18T06:43:53;-1.80;99.90
12682;DHT22;6405;59.208;18.216;2022-12-18T06:46:19;-1.80;99.90
12682;DHT22;6405;59.208;18.216;2022-12-18T06:48:47;-1.80;99.90
12682;DHT22;6405;59.208;18.216;2022-12-18T06:51:23;-1.70;99.90
12682;DHT22;6405;59.208;18.216;2022-12-18T06:53:51;-1.70;99.90
12682;DHT22;6405;59.208;18.216;2022-12-18T06:56:16;-1.70;99.90
12682;DHT22;6405;59.208;18.216;2022-12-18T06:58:43;-1.70;99.90
12682;DHT22;6405;59.208;18.216;2022-12-18T07:01:11;-1.70;99.90
12682;DHT22;6405;59.208;18.216;2022-12-18T07:03:42;-1.60;99.90
12682;DHT22;6405;59.208;18.216;2022-12-18T07:06:17;-1.60;99.90
12682;DHT22;6405;59.208;18.216;2022-12-18T07:08:46;-1.60;99.90
12682;DHT22;6405;59.208;18.216;2022-12-18T07:11:12;-1.60;99.90
12682;DHT22;6405;59.208;18.216;2022-12-18T07:13:38;-1.60;99.90
12682;DHT22;6405;59.208;18.216;2022-12-18T07:16:10;-1.50;99.90
12682;DHT22;6405;59.208;18.216;2022-12-18T07:18:39;-1.50;99.90
12682;DHT22;6405;59.208;18.216;2022-12-18T07:21:07;-1.50;99.90
12682;DHT22;6405;59.208;18.216;2022-12-18T07:23:34;-1.40;99.90
12682;DHT22;6405;59.208;18.216;2022-12-18T07:26:07;-1.40;99.90
12682;DHT22;6405;59.208;18.216;2022-12-18T07:28:38;-1.30;99.90
12682;DHT22;6405;59.208;18.216;2022-12-18T07:31:11;-1.30;99.90
12682;DHT22;6405;59.208;18.216;2022-12-18T07:33:38;-1.20;99.90
12682;DHT22;6405;59.208;18.216;2022-12-18T07:36:08;-1.20;99.90
12682;DHT22;6405;59.208;18.216;2022-12-18T07:38:35;-1.10;99.90
12682;DHT22;6405;59.208;18.216;2022-12-18T07:41:05;-1.10;99.90
12682;DHT22;6405;59.208;18.216;2022-12-18T07:43:35;-1.00;99.90
12682;DHT22;6405;59.208;18.216;2022-12-18T07:46:03;-0.90;99.90
12682;DHT22;6405;59.208;18.216;2022-12-18T07:48:31;-0.90;99.90
12682;DHT22;6405;59.208;18.216;2022-12-18T07:51:00;-0.80;99.90
12682;DHT22;6405;59.208;18.216;2022-12-18T07:53:28;-0.80;99.90
12682;DHT22;6405;59.208;18.216;2022-12-18T07:56:00;-0.70;99.90
12682;DHT22;6405;59.208;18.216;2022-12-18T07:58:30;-0.60;99.90
12682;DHT22;6405;59.208;18.216;2022-12-18T08:01:05;-0.60;99.90
12682;DHT22;6405;59.208;18.216;2022-12-18T08:03:32;-0.50;99.90
12682;DHT22;6405;59.208;18.216;2022-12-18T08:06:01;-0.40;99.90
12682;DHT22;6405;59.208;18.216;2022-12-18T08:08:30;-0.40;99.90
12682;DHT22;6405;59.208;18.216;2022-12-18T08:10:57;-0.40;99.90
12682;DHT22;6405;59.208;18.216;2022-12-18T08:13:24;-0.30;99.90
12682;DHT22;6405;59.208;18.216;2022-12-18T08:16:03;-0.30;99.90
12682;DHT22;6405;59.208;18.216;2022-12-18T08:18:35;-0.30;99.90
12682;DHT22;6405;59.208;18.216;2022-12-18T08:21:19;-0.20;99.90
12682;DHT22;6405;59.208;18.216;2022-12-18T08:23:48;-0.20;99.90
12682;DHT22;6405;59.208;18.216;2022-12-18T08:26:16;-0.10;99.90
12682;DHT22;6405;59.208;18.216;2022-12-18T08:28:44;0.00;99.90
12682;DHT22;6405;59.208;18.216;2022-12-18T08:31:12;0.00;99.90
12682;DHT22;6405;59.208;18.216;2022-12-18T08:33:39;0.00;99.90
12682;DHT22;6405;59.208;18.216;2022-12-18T08:36:08;0.10;99.90
12682;DHT22;6405;59.208;18.216;2022-12-18T08:38:36;0.10;99.90
12682;DHT22;6405;59.208;18.216;2022-12-18T08:41:05;0.10;99.90
12682;DHT22;6405;59.208;18.216;2022-12-18T08:43:34;0.20;99.90
12682;DHT22;6405;59.208;18.216;2022-12-18T08:46:21;0.20;99.90
12682;DHT22;6405;59.208;18.216;2022-12-18T08:48:50;0.20;99.90
12682;DHT22;6405;59.208;18.216;2022-12-18T08:51:19;0.20;99.90
12682;DHT22;6405;59.208;18.216;2022-12-18T08:53:46;0.30;99.90
12682;DHT22;6405;59.208;18.216;2022-12-18T08:56:14;0.40;99.90
12682;DHT22;6405;59.208;18.216;2022-12-18T08:58:43;0.40;99.90
12682;DHT22;6405;59.208;18.216;2022-12-18T09:01:12;0.40;99.90
12682;DHT22;6405;59.208;18.216;2022-12-18T09:03:40;0.50;99.90
12682;DHT22;6405;59.208;18.216;2022-12-18T09:06:06;0.50;99.90
12682;DHT22;6405;59.208;18.216;2022-12-18T09:08:36;0.50;99.90
12682;DHT22;6405;59.208;18.216;2022-12-18T09:11:03;0.60;99.90
12682;DHT22;6405;59.208;18.216;2022-12-18T09:13:31;0.60;99.90
12682;DHT22;6405;59.208;18.216;2022-12-18T09:15:57;0.70;99.90
12682;DHT22;6405;59.208;18.216;2022-12-18T09:18:24;0.70;99.90
12682;DHT22;6405;59.208;18.216;2022-12-18T09:20:51;0.70;99.90
12682;DHT22;6405;59.208;18.216;2022-12-18T09:23:20;0.70;99.90
12682;DHT22;6405;59.208;18.216;2022-12-18T09:25:47;0.80;99.90
12682;DHT22;6405;59.208;18.216;2022-12-18T09:28:16;0.80;99.90
12682;DHT22;6405;59.208;18.216;2022-12-18T09:30:48;0.90;99.90
12682;DHT22;6405;59.208;18.216;2022-12-18T09:33:17;0.90;99.90
12682;DHT22;6405;59.208;18.216;2022-12-18T09:35:45;1.00;99.90
12682;DHT22;6405;59.208;18.216;2022-12-18T09:38:19;1.00;99.90
12682;DHT22;6405;59.208;18.216;2022-12-18T09:40:53;1.00;99.90
12682;DHT22;6405;59.208;18.216;2022-12-18T09:43:28;1.10;99.90
12682;DHT22;6405;59.208;18.216;2022-12-18T09:46:09;1.10;99.90
12682;DHT22;6405;59.208;18.216;2022-12-18T09:48:40;1.20;99.90
12682;DHT22;6405;59.208;18.216;2022-12-18T09:51:15;1.20;99.90
12682;DHT22;6405;59.208;18.216;2022-12-18T09:53:46;1.20;99.90
12682;DHT22;6405;59.208;18.216;2022-12-18T09:56:18;1.30;99.90
12682;DHT22;6405;59.208;18.216;2022-12-18T09:58:57;1.30;99.90
12682;DHT22;6405;59.208;18.216;2022-12-18T10:01:25;1.40;99.90
12682;DHT22;6405;59.208;18.216;2022-12-18T10:03:55;1.40;99.90
12682;DHT22;6405;59.208;18.216;2022-12-18T10:06:31;1.40;99.90
12682;DHT22;6405;59.208;18.216;2022-12-18T10:14:52;1.50;99.90
12682;DHT22;6405;59.208;18.216;2022-12-18T10:17:49;1.50;99.90
12682;DHT22;6405;59.208;18.216;2022-12-18T10:20:34;1.50;99.90
12682;DHT22;6405;59.208;18.216;2022-12-18T10:23:28;1.50;99.90
12682;DHT22;6405;59.208;18.216;2022-12-18T10:26:05;1.50;99.90
12682;DHT22;6405;59.208;18.216;2022-12-18T10:28:36;1.50;99.90
12682;DHT22;6405;59.208;18.216;2022-12-18T10:31:06;1.50;99.90
12682;DHT22;6405;59.208;18.216;2022-12-18T10:33:34;1.50;99.90
12682;DHT22;6405;59.208;18.216;2022-12-18T10:36:00;1.50;99.90
12682;DHT22;6405;59.208;18.216;2022-12-18T10:38:30;1.50;99.90
12682;DHT22;6405;59.208;18.216;2022-12-18T10:43:31;1.40;99.90
12682;DHT22;6405;59.208;18.216;2022-12-18T10:46:14;1.40;99.90
12682;DHT22;6405;59.208;18.216;2022-12-18T10:51:34;1.40;99.90
12682;DHT22;6405;59.208;18.216;2022-12-18T10:54:22;1.40;99.90
12682;DHT22;6405;59.208;18.216;2022-12-18T10:56:50;1.50;99.90
12682;DHT22;6405;59.208;18.216;2022-12-18T10:59:18;1.50;99.90
12682;DHT22;6405;59.208;18.216;2022-12-18T11:01:51;1.50;99.90
12682;DHT22;6405;59.208;18.216;2022-12-18T11:04:21;1.50;99.90
12682;DHT22;6405;59.208;18.216;2022-12-18T11:09:28;1.50;99.90
12682;DHT22;6405;59.208;18.216;2022-12-18T11:11:56;1.50;99.90
12682;DHT22;6405;59.208;18.216;2022-12-18T11:14:50;1.50;99.90
12682;DHT22;6405;59.208;18.216;2022-12-18T11:19:57;1.50;99.90
12682;DHT22;6405;59.208;18.216;2022-12-18T11:24:57;1.40;99.90
12682;DHT22;6405;59.208;18.216;2022-12-18T11:27:26;1.40;99.90
12682;DHT22;6405;59.208;18.216;2022-12-18T11:33:03;1.50;99.90
12682;DHT22;6405;59.208;18.216;2022-12-18T11:36:01;1.50;99.90
12682;DHT22;6405;59.208;18.216;2022-12-18T11:38:33;1.40;99.90
12682;DHT22;6405;59.208;18.216;2022-12-18T11:44:18;1.40;99.90
12682;DHT22;6405;59.208;18.216;2022-12-18T11:46:55;1.40;99.90
12682;DHT22;6405;59.208;18.216;2022-12-18T11:49:34;1.40;99.90
12682;DHT22;6405;59.208;18.216;2022-12-18T11:52:12;1.40;99.90
12682;DHT22;6405;59.208;18.216;2022-12-18T11:54:43;1.40;99.90
12682;DHT22;6405;59.208;18.216;2022-12-18T11:57:25;1.50;99.90
12682;DHT22;6405;59.208;18.216;2022-12-18T12:00:08;1.50;99.90
12682;DHT22;6405;59.208;18.216;2022-12-18T12:11:23;1.50;99.90
12682;DHT22;6405;59.208;18.216;2022-12-18T12:16:55;1.60;99.90
12682;DHT22;6405;59.208;18.216;2022-12-18T12:27:53;1.50;99.90
12682;DHT22;6405;59.208;18.216;2022-12-18T12:39:01;1.50;99.90
12682;DHT22;6405;59.208;18.216;2022-12-18T12:41:31;1.60;99.90
12682;DHT22;6405;59.208;18.216;2022-12-18T12:44:24;1.60;99.90
12682;DHT22;6405;59.208;18.216;2022-12-18T12:46:56;1.60;99.90
12682;DHT22;6405;59.208;18.216;2022-12-18T12:49:28;1.60;99.90
12682;DHT22;6405;59.208;18.216;2022-12-18T12:52:07;1.60;99.90
12682;DHT22;6405;59.208;18.216;2022-12-18T12:54:36;1.60;99.90
12682;DHT22;6405;59.208;18.216;2022-12-18T13:05:48;1.70;99.90
12682;DHT22;6405;59.208;18.216;2022-12-18T13:08:30;1.60;99.90
12682;DHT22;6405;59.208;18.216;2022-12-18T13:10:58;1.70;99.90
12682;DHT22;6405;59.208;18.216;2022-12-18T13:13:53;1.70;99.90
12682;DHT22;6405;59.208;18.216;2022-12-18T13:16:24;1.70;99.90
12682;DHT22;6405;59.208;18.216;2022-12-18T13:18:56;1.70;99.90
12682;DHT22;6405;59.208;18.216;2022-12-18T13:21:29;1.80;99.90
12682;DHT22;6405;59.208;18.216;2022-12-18T13:24:15;1.80;99.90
12682;DHT22;6405;59.208;18.216;2022-12-18T13:26:46;1.80;99.90
12682;DHT22;6405;59.208;18.216;2022-12-18T13:29:42;1.80;99.90
12682;DHT22;6405;59.208;18.216;2022-12-18T13:32:23;1.90;99.90
12682;DHT22;6405;59.208;18.216;2022-12-18T13:37:51;1.80;99.90
12682;DHT22;6405;59.208;18.216;2022-12-18T13:45:49;1.90;99.90
12682;DHT22;6405;59.208;18.216;2022-12-18T13:48:19;1.90;99.90
12682;DHT22;6405;59.208;18.216;2022-12-18T13:51:09;1.90;99.90
12682;DHT22;6405;59.208;18.216;2022-12-18T13:53:50;1.90;99.90
12682;DHT22;6405;59.208;18.216;2022-12-18T13:56:18;2.00;99.90
12682;DHT22;6405;59.208;18.216;2022-12-18T14:01:55;2.00;99.90
12682;DHT22;6405;59.208;18.216;2022-12-18T14:04:26;2.00;99.90
12682;DHT22;6405;59.208;18.216;2022-12-18T14:07:01;1.90;99.90
12682;DHT22;6405;59.208;18.216;2022-12-18T14:09:33;2.00;99.90
12682;DHT22;6405;59.208;18.216;2022-12-18T14:12:02;1.90;99.90
12682;DHT22;6405;59.208;18.216;2022-12-18T14:14:51;1.90;99.90
12682;DHT22;6405;59.208;18.216;2022-12-18T14:17:18;1.90;99.90
12682;DHT22;6405;59.208;18.216;2022-12-18T14:19:48;1.80;99.90
12682;DHT22;6405;59.208;18.216;2022-12-18T14:22:28;1.80;99.90
12682;DHT22;6405;59.208;18.216;2022-12-18T14:25:16;1.80;99.90
12682;DHT22;6405;59.208;18.216;2022-12-18T14:27:46;1.80;99.90
12682;DHT22;6405;59.208;18.216;2022-12-18T14:30:35;1.90;99.90
12682;DHT22;6405;59.208;18.216;2022-12-18T14:35:38;1.90;99.90
12682;DHT22;6405;59.208;18.216;2022-12-18T14:41:01;1.90;99.90
12682;DHT22;6405;59.208;18.216;2022-12-18T14:43:32;1.80;99.90
12682;DHT22;6405;59.208;18.216;2022-12-18T14:46:02;1.80;99.90
12682;DHT22;6405;59.208;18.216;2022-12-18T14:48:40;1.80;99.90
12682;DHT22;6405;59.208;18.216;2022-12-18T14:51:27;1.80;99.90
12682;DHT22;6405;59.208;18.216;2022-12-18T14:56:32;1.90;99.90
12682;DHT22;6405;59.208;18.216;2022-12-18T14:59:05;1.80;99.90
12682;DHT22;6405;59.208;18.216;2022-12-18T15:04:31;1.90;99.90
12682;DHT22;6405;59.208;18.216;2022-12-18T15:09:41;1.90;99.90
12682;DHT22;6405;59.208;18.216;2022-12-18T15:12:42;1.90;99.90
12682;DHT22;6405;59.208;18.216;2022-12-18T15:18:14;1.80;99.90
12682;DHT22;6405;59.208;18.216;2022-12-18T15:20:54;1.80;99.90
12682;DHT22;6405;59.208;18.216;2022-12-18T15:23:51;1.80;99.90
12682;DHT22;6405;59.208;18.216;2022-12-18T15:26:20;1.90;99.90
12682;DHT22;6405;59.208;18.216;2022-12-18T15:28:52;1.90;99.90
12682;DHT22;6405;59.208;18.216;2022-12-18T15:31:32;2.00;99.90
12682;DHT22;6405;59.208;18.216;2022-12-18T15:34:11;2.10;99.90
12682;DHT22;6405;59.208;18.216;2022-12-18T15:36:49;2.10;99.90
12682;DHT22;6405;59.208;18.216;2022-12-18T15:39:15;2.00;99.90
12682;DHT22;6405;59.208;18.216;2022-12-18T15:41:42;2.00;99.90
12682;DHT22;6405;59.208;18.216;2022-12-18T15:44:29;2.00;99.90
12682;DHT22;6405;59.208;18.216;2022-12-18T15:46:57;2.00;99.90
12682;DHT22;6405;59.208;18.216;2022-12-18T15:49:23;2.10;99.90
12682;DHT22;6405;59.208;18.216;2022-12-18T15:51:59;2.20;99.90
12682;DHT22;6405;59.208;18.216;2022-12-18T15:54:26;2.20;99.90
12682;DHT22;6405;59.208;18.216;2022-12-18T15:57:26;2.20;99.90
12682;DHT22;6405;59.208;18.216;2022-12-18T15:59:56;2.20;99.90
12682;DHT22;6405;59.208;18.216;2022-12-18T16:02:24;2.10;99.90
12682;DHT22;6405;59.208;18.216;2022-12-18T16:04:52;2.10;99.90
12682;DHT22;6405;59.208;18.216;2022-12-18T16:07:21;2.00;99.90
12682;DHT22;6405;59.208;18.216;2022-12-18T16:09:47;2.00;99.90
12682;DHT22;6405;59.208;18.216;2022-12-18T16:12:20;2.00;99.90
12682;DHT22;6405;59.208;18.216;2022-12-18T16:14:49;2.00;99.90
12682;DHT22;6405;59.208;18.216;2022-12-18T16:17:16;1.90;99.90
12682;DHT22;6405;59.208;18.216;2022-12-18T16:19:45;1.80;99.90
12682;DHT22;6405;59.208;18.216;2022-12-18T16:22:26;1.90;99.90
12682;DHT22;6405;59.208;18.216;2022-12-18T16:24:56;1.80;99.90
12682;DHT22;6405;59.208;18.216;2022-12-18T16:27:24;1.80;99.90
12682;DHT22;6405;59.208;18.216;2022-12-18T16:29:50;1.80;99.90
12682;DHT22;6405;59.208;18.216;2022-12-18T16:32:18;1.80;99.90
12682;DHT22;6405;59.208;18.216;2022-12-18T16:34:46;1.70;99.90
12682;DHT22;6405;59.208;18.216;2022-12-18T16:37:16;1.70;99.90
12682;DHT22;6405;59.208;18.216;2022-12-18T16:39:44;1.60;99.90
12682;DHT22;6405;59.208;18.216;2022-12-18T16:42:18;1.70;99.90
12682;DHT22;6405;59.208;18.216;2022-12-18T16:44:48;1.70;99.90
12682;DHT22;6405;59.208;18.216;2022-12-18T16:47:16;1.70;99.90
12682;DHT22;6405;59.208;18.216;2022-12-18T16:49:43;1.70;99.90
12682;DHT22;6405;59.208;18.216;2022-12-18T16:52:16;1.70;99.90
12682;DHT22;6405;59.208;18.216;2022-12-18T16:54:45;1.70;99.90
12682;DHT22;6405;59.208;18.216;2022-12-18T16:57:14;1.60;99.90
12682;DHT22;6405;59.208;18.216;2022-12-18T16:59:42;1.60;99.90
12682;DHT22;6405;59.208;18.216;2022-12-18T17:02:20;1.70;99.90
12682;DHT22;6405;59.208;18.216;2022-12-18T17:04:49;1.60;99.90
12682;DHT22;6405;59.208;18.216;2022-12-18T17:07:16;1.70;99.90
12682;DHT22;6405;59.208;18.216;2022-12-18T17:09:44;1.70;99.90
12682;DHT22;6405;59.208;18.216;2022-12-18T17:12:11;1.70;99.90
12682;DHT22;6405;59.208;18.216;2022-12-18T17:14:37;1.60;99.90
12682;DHT22;6405;59.208;18.216;2022-12-18T17:17:05;1.60;99.90
12682;DHT22;6405;59.208;18.216;2022-12-18T17:19:33;1.50;99.90
12682;DHT22;6405;59.208;18.216;2022-12-18T17:22:00;1.50;99.90
12682;DHT22;6405;59.208;18.216;2022-12-18T17:24:26;1.50;99.90
12682;DHT22;6405;59.208;18.216;2022-12-18T17:26:53;1.70;99.90
12682;DHT22;6405;59.208;18.216;2022-12-18T17:29:20;1.50;99.90
12682;DHT22;6405;59.208;18.216;2022-12-18T17:31:47;1.50;99.90
12682;DHT22;6405;59.208;18.216;2022-12-18T17:34:14;1.50;99.90
12682;DHT22;6405;59.208;18.216;2022-12-18T17:36:41;1.40;99.90
12682;DHT22;6405;59.208;18.216;2022-12-18T17:39:16;1.40;99.90
12682;DHT22;6405;59.208;18.216;2022-12-18T17:41:43;1.40;99.90
12682;DHT22;6405;59.208;18.216;2022-12-18T17:44:09;1.40;99.90
12682;DHT22;6405;59.208;18.216;2022-12-18T17:46:36;1.40;99.90
12682;DHT22;6405;59.208;18.216;2022-12-18T17:49:03;1.40;99.90
12682;DHT22;6405;59.208;18.216;2022-12-18T17:51:31;1.40;99.90
12682;DHT22;6405;59.208;18.216;2022-12-18T17:53:57;1.30;99.90
12682;DHT22;6405;59.208;18.216;2022-12-18T17:56:25;1.30;99.90
12682;DHT22;6405;59.208;18.216;2022-12-18T17:58:52;1.30;99.90
12682;DHT22;6405;59.208;18.216;2022-12-18T18:01:21;1.20;99.90